Flight Track Log - Related Links

Times and Time Zones

All times are in EDT time to prevent confusion due to time zone crossing. See the DAL1263 flight status page for this flight to view local times or setup timezone preferences in your user account.

Time Position Orientation Groundspeed Altitude Reporting Facility
EDT Latitude Longitude Course Direction KTS MPH feet Rate Location/Type
Wed 07:38:34 AM 41.7061 -71.4419 287° West 143 165 1,000  Level Boston Center
Wed 07:38:59 AM 41.6981 -71.4614 241° Southwest 165 190 1,500 1,457 Climbing Boston Center
Wed 07:39:44 AM 41.6983 -71.5142 270° West 199 229 2,700 2,800 Climbing Boston Center
Wed 07:40:44 AM 41.7450 -71.5942 308° West 237 273 6,400 3,550 Climbing Boston Center
Wed 07:41:00 AM 41.9165 -71.7775 309° West  Level FlightAware Approximate
Wed 07:41:44 AM 41.7994 -71.6547 320° Northwest 247 284 9,800  Level Boston Center
Wed 07:42:00 AM 41.9604 -71.9114 287° West  Level FlightAware Approximate
Wed 07:42:44 AM 41.8417 -71.7322 306° West 256 295 12,700  Level Boston Center
Wed 07:43:00 AM 41.9938 -72.0565 287° West  Level FlightAware Approximate
Wed 07:43:44 AM 41.8756 -71.8211 297° West 266 306 15,200  Level Boston Center
Wed 07:44:44 AM 41.9072 -71.9156 294° West 277 319 17,700 2,300 Climbing Boston Center
Wed 07:45:44 AM 41.9369 -72.0158 292° West 283 326 19,800 2,000 Climbing Boston Center
Wed 07:46:44 AM 41.9664 -72.1106 293° West 283 326 21,700 1,800 Climbing Boston Center
Wed 07:47:44 AM 41.9981 -72.2111 293° West 288 331 23,400 1,600 Climbing Boston Center
Wed 07:48:44 AM 41.9919 -72.3283 266° West 301 346 24,900 1,450 Climbing Boston Center
Wed 07:49:44 AM 41.9772 -72.4456 260° West 313 360 26,300 1,000 Climbing Boston Center
Wed 07:50:44 AM 41.9628 -72.5714 261° West 328 377 26,900 550 Climbing Boston Center
Wed 07:51:44 AM 41.9311 -72.6883 250° West 348 400 27,400 650 Climbing Boston Center
Wed 07:52:44 AM 41.8744 -72.8247 241° Southwest 388 447 28,200 1,100 Climbing Boston Center
Wed 07:53:44 AM 41.8136 -72.9608 239° Southwest 410 472 29,600 1,500 Climbing Boston Center
Wed 07:54:56 AM 41.7481 -73.1133 240° Southwest 430 495 31,500 1,318 Climbing Boston Center
Wed 07:55:56 AM 41.6783 -73.2711 239° Southwest 425 489 32,500 850 Climbing Boston Center
Wed 07:56:56 AM 41.6211 -73.3842 236° Southwest 420 483 33,200 448 Climbing Boston Center
Wed 07:59:17 AM 41.4469 -73.6661 231° Southwest 426 490 34,000 238 Climbing New York Center
Wed 08:00:18 AM 41.3667 -73.7925 230° Southwest 443 510 34,000  Level New York Center
Wed 08:01:19 AM 41.2861 -73.9269 231° Southwest 441 507 34,000  Level New York Center
Wed 08:02:17 AM 41.2058 -74.0472 228° Southwest 435 501 34,000  Level New York Center
Wed 08:03:17 AM 41.1294 -74.1647 229° Southwest 435 501 34,000  Level New York Center
Wed 08:04:18 AM 41.0553 -74.2794 229° Southwest 430 495 34,000  Level New York Center
Wed 08:05:18 AM 40.9872 -74.3914 231° Southwest 435 501 34,000  Level New York Center
Wed 08:06:20 AM 40.9086 -74.5106 229° Southwest 435 501 34,000  Level New York Center
Wed 08:07:18 AM 40.8319 -74.6272 229° Southwest 435 501 34,000  Level New York Center
Wed 08:08:17 AM 40.7550 -74.7486 230° Southwest 440 506 34,000  Level New York Center
Wed 08:09:18 AM 40.6781 -74.8700 230° Southwest 440 506 34,000  Level New York Center
Wed 08:10:19 AM 40.6008 -74.9858 229° Southwest 440 506 34,000  Level New York Center
Wed 08:11:17 AM 40.5236 -75.1094 231° Southwest 440 506 34,000  Level New York Center
Wed 08:12:18 AM 40.4442 -75.2272 228° Southwest 440 506 34,000  Level New York Center
Wed 08:13:18 AM 40.3667 -75.3447 229° Southwest 440 506 34,000  Level New York Center
Wed 08:14:17 AM 40.2889 -75.4647 230° Southwest 440 506 34,000  Level New York Center
Wed 08:15:17 AM 40.2111 -75.5844 230° Southwest 445 512 34,000  Level New York Center
Wed 08:16:18 AM 40.1475 -75.7131 237° Southwest 434 499 34,000  Level New York Center
Wed 08:17:19 AM 40.0817 -75.8442 237° Southwest 429 494 34,000  Level New York Center
Wed 08:18:19 AM 40.0197 -75.9725 238° Southwest 429 494 34,000  Level New York Center
Wed 08:19:20 AM 39.9533 -76.1031 236° Southwest 429 494 34,000  Level New York Center
Wed 08:20:18 AM 39.8783 -76.2406 235° Southwest 429 494 34,000  Level New York Center
Wed 08:21:19 AM 39.8117 -76.3706 236° Southwest 429 494 34,000  Level New York Center
Wed 08:22:20 AM 39.7431 -76.4975 235° Southwest 429 494 34,000  Level New York Center
Wed 08:22:57 AM 39.6950 -76.5811 233° Southwest 432 497 34,000  Level Washington Center
Wed 08:23:58 AM 39.6272 -76.7122 236° Southwest 442 509 34,000  Level Washington Center
Wed 08:24:58 AM 39.5614 -76.8350 235° Southwest 442 509 34,000  Level Washington Center
Wed 08:25:59 AM 39.4953 -76.9631 236° Southwest 437 503 34,000  Level Washington Center
Wed 08:26:56 AM 39.4089 -77.0661 223° Southwest 437 503 34,000  Level Washington Center
Wed 08:27:57 AM 39.3136 -77.1661 219° Southwest 437 503 34,000  Level Washington Center
Wed 08:28:57 AM 39.2186 -77.2686 220° Southwest 449 517 34,000  Level Washington Center
Wed 08:29:58 AM 39.1192 -77.3706 219° Southwest 449 517 34,000  Level Washington Center
Wed 08:30:57 AM 39.0258 -77.4700 220° Southwest 449 517 34,000  Level Washington Center
Wed 08:31:57 AM 38.9283 -77.5717 219° Southwest 455 524 34,000  Level Washington Center
Wed 08:32:58 AM 38.8308 -77.6728 219° Southwest 455 524 34,000  Level Washington Center
Wed 08:33:58 AM 38.7331 -77.7739 219° Southwest 455 524 34,000  Level Washington Center
Wed 08:34:59 AM 38.6417 -77.8750 221° Southwest 450 518 34,000  Level Washington Center
Wed 08:35:57 AM 38.5664 -77.9947 231° Southwest 437 503 34,000  Level Washington Center
Wed 08:36:59 AM 38.5100 -78.0911 233° Southwest 437 503 34,000  Level Washington Center
Wed 08:37:59 AM 38.4344 -78.2211 233° Southwest 432 497 34,000  Level Washington Center
Wed 08:38:56 AM 38.3628 -78.3431 233° Southwest 432 497 34,000  Level Washington Center
Wed 08:39:58 AM 38.2933 -78.4594 233° Southwest 427 491 34,000  Level Washington Center
Wed 08:40:58 AM 38.2172 -78.5914 234° Southwest 422 486 34,000  Level Washington Center
Wed 08:41:59 AM 38.1453 -78.7072 232° Southwest 422 486 34,000  Level Washington Center
Wed 08:42:59 AM 38.0756 -78.8258 233° Southwest 422 486 34,000  Level Washington Center
Wed 08:43:57 AM 38.0100 -78.9336 232° Southwest 432 497 34,000  Level Washington Center
Wed 08:44:58 AM 37.9378 -79.0514 232° Southwest 432 497 34,000  Level Washington Center
Wed 08:45:58 AM 37.8614 -79.1664 230° Southwest 432 497 34,000  Level Washington Center
Wed 08:46:59 AM 37.7722 -79.2908 228° Southwest 432 497 34,000  Level Washington Center
Wed 08:47:56 AM 37.6894 -79.3997 226° Southwest 442 509 34,000  Level Washington Center
Wed 08:48:57 AM 37.6064 -79.5136 227° Southwest 442 509 34,000  Level Washington Center
Wed 08:49:57 AM 37.5256 -79.6297 229° Southwest 437 503 34,000  Level Washington Center
Wed 08:50:57 AM 37.4444 -79.7406 227° Southwest 437 503 34,000  Level Washington Center
Wed 08:53:08 AM 37.2611 -79.9842 227° Southwest 438 504 34,000  Level Atlanta Center
Wed 08:54:07 AM 37.1794 -80.0950 227° Southwest 438 504 34,000  Level Atlanta Center
Wed 08:55:07 AM 37.0994 -80.2031 227° Southwest 433 498 34,000  Level Atlanta Center
Wed 08:56:08 AM 37.0233 -80.3031 226° Southwest 433 498 34,000  Level Atlanta Center
Wed 08:57:07 AM 36.9411 -80.4133 227° Southwest 433 498 34,000  Level Atlanta Center
Wed 08:58:07 AM 36.8567 -80.5236 226° Southwest 433 498 34,000  Level Atlanta Center
Wed 08:59:08 AM 36.7664 -80.6442 227° Southwest 433 498 34,000  Level Atlanta Center
Wed 09:00:08 AM 36.6881 -80.7536 228° Southwest 428 493 34,000  Level Atlanta Center
Wed 09:01:08 AM 36.6053 -80.8606 226° Southwest 428 493 34,000  Level Atlanta Center
Wed 09:02:08 AM 36.5225 -80.9722 227° Southwest 435 501 34,000  Level Atlanta Center
Wed 09:03:08 AM 36.4397 -81.0814 227° Southwest 435 501 34,000  Level Atlanta Center
Wed 09:04:08 AM 36.3569 -81.1925 227° Southwest 435 501 34,000  Level Atlanta Center
Wed 09:05:08 AM 36.2739 -81.3036 227° Southwest 435 501 34,000  Level Atlanta Center
Wed 09:06:08 AM 36.1908 -81.4147 227° Southwest 435 501 34,000  Level Atlanta Center
Wed 09:07:08 AM 36.1075 -81.5228 226° Southwest 435 501 34,000  Level Atlanta Center
Wed 09:08:08 AM 36.0200 -81.6333 226° Southwest 435 501 34,000  Level Atlanta Center
Wed 09:09:08 AM 35.9389 -81.7433 228° Southwest 435 501 34,000  Level Atlanta Center
Wed 09:10:08 AM 35.8531 -81.8483 225° Southwest 435 501 34,000  Level Atlanta Center
Wed 09:11:08 AM 35.7694 -81.9553 226° Southwest 435 501 34,000  Level Atlanta Center
Wed 09:12:08 AM 35.6856 -82.0625 226° Southwest 435 501 34,000  Level Atlanta Center
Wed 09:13:08 AM 35.6017 -82.1692 226° Southwest 440 506 34,000  Level Atlanta Center
Wed 09:14:08 AM 35.5261 -82.2628 225° Southwest 435 501 34,000 -150 Level Atlanta Center
Wed 09:15:08 AM 35.4336 -82.3642 222° Southwest 435 501 33,700 -700 Descending Atlanta Center
Wed 09:16:08 AM 35.3472 -82.4600 222° Southwest 433 498 32,600 -1,000 Descending Atlanta Center
Wed 09:17:08 AM 35.2628 -82.5583 224° Southwest 433 498 31,700 -1,150 Descending Atlanta Center
Wed 09:18:08 AM 35.1681 -82.6592 221° Southwest 423 487 30,300 -1,750 Descending Atlanta Center
Wed 09:19:08 AM 35.0856 -82.7519 223° Southwest 413 475 28,200 -1,950 Descending Atlanta Center
Wed 09:20:08 AM 34.9947 -82.8469 221° Southwest 420 483 26,400 -1,850 Descending Atlanta Center
Wed 09:21:08 AM 34.9142 -82.9394 223° Southwest 431 496 24,500 -1,700 Descending Atlanta Center
Wed 09:22:08 AM 34.8294 -83.0392 224° Southwest 431 496 23,000 -1,500 Descending Atlanta Center
Wed 09:23:08 AM 34.7322 -83.1389 220° Southwest 431 496 21,500 -1,200 Descending Atlanta Center
Wed 09:24:08 AM 34.6494 -83.2358 224° Southwest 426 490 20,600 -1,100 Descending Atlanta Center
Wed 09:25:08 AM 34.5686 -83.3250 222° Southwest 408 470 19,300 -1,300 Descending Atlanta Center
Wed 09:26:08 AM 34.4897 -83.4086 221° Southwest 402 463 18,000 -1,400 Descending Atlanta Center
Wed 09:27:08 AM 34.4086 -83.4975 222° Southwest 388 447 16,500 -1,250 Descending Atlanta Center
Wed 09:28:08 AM 34.3339 -83.5758 221° Southwest 373 429 15,500 -1,300 Descending Atlanta Center
Wed 09:29:08 AM 34.2675 -83.6517 223° Southwest 351 404 13,900 -1,600 Descending Atlanta Center
Wed 09:30:08 AM 34.1989 -83.7247 221° Southwest 337 388 12,300 -1,000 Descending Atlanta Center
Wed 09:31:08 AM 34.1300 -83.7978 221° Southwest 337 388 11,900 -200 Descending Atlanta Center
Wed 09:32:08 AM 34.0717 -83.8608 222° Southwest 330 380 11,900 -150 Level Atlanta Center
Wed 09:33:08 AM 34.0156 -83.9236 223° Southwest 303 349 11,600 -950 Descending Atlanta Center
Wed 09:34:08 AM 33.9444 -83.9636 205° Southwest 287 330 10,000 -1,107 Descending Atlanta Center
Wed 09:37:12 AM 33.7000 -83.9833 184° South 279 321 7,100 -713 Descending Atlanta TRACON
Wed 09:38:12 AM 33.6333 -84.0000 192° South 253 291 7,100 -250 Level Atlanta TRACON
Wed 09:39:12 AM 33.6333 -84.0833 270° West 215 247 6,600 -1,100 Descending Atlanta TRACON
Wed 09:40:12 AM 33.6333 -84.1500 270° West 223 257 4,900 -1,368 Descending Atlanta TRACON
Wed 09:41:06 AM 33.6333 -84.2167 270° West 198 228 4,000 -800 Descending Atlanta TRACON
Wed 09:42:12 AM 33.6333 -84.2833 270° West 174 200 3,300 -636 Descending Atlanta TRACON

Login

Don't have an account? Register now (free) for customized features, flight alerts, and more!